createdAt,value
2018-05-23T00:01:21.715Z,97963.84
2018-05-23T00:03:49.969Z,97963.23
2018-05-23T00:06:18.979Z,97954.39
2018-05-23T00:08:47.997Z,97962.70
2018-05-23T00:11:16.240Z,97970.52
2018-05-23T00:13:45.261Z,97968.73
2018-05-23T00:16:13.506Z,97967.43
2018-05-23T00:18:42.519Z,97967.77
2018-05-23T00:21:10.773Z,97969.20
2018-05-23T00:23:39.793Z,97969.62
2018-05-23T00:26:08.036Z,97971.08
2018-05-23T00:28:37.051Z,97965.06
2018-05-23T00:31:05.291Z,97968.38
2018-05-23T00:33:33.555Z,97966.56
2018-05-23T00:36:01.803Z,97961.50
2018-05-23T00:38:30.046Z,97961.41
2018-05-23T00:40:59.064Z,97963.88
2018-05-23T00:43:27.300Z,97958.16
2018-05-23T00:45:56.311Z,97958.92
2018-05-23T00:48:24.547Z,97958.09
2018-05-23T00:50:52.792Z,97959.02
2018-05-23T00:53:21.034Z,97952.55
2018-05-23T00:55:50.045Z,97953.80
2018-05-23T00:58:18.282Z,97951.34
2018-05-23T01:00:46.533Z,97953.07
2018-05-23T01:03:14.769Z,97952.72
2018-05-23T01:05:43.015Z,97962.20
2018-05-23T01:08:12.024Z,97956.80
2018-05-23T01:10:40.284Z,97956.09
2018-05-23T01:13:09.406Z,97961.91
2018-05-23T01:15:37.650Z,97957.81
2018-05-23T01:18:05.897Z,97956.59
2018-05-23T01:20:34.132Z,97959.98
2018-05-23T01:23:02.391Z,97963.85
2018-05-23T01:25:31.496Z,97960.94
2018-05-23T01:27:59.744Z,97969.03
2018-05-23T01:30:27.987Z,97970.28
2018-05-23T01:32:56.240Z,97966.11
2018-05-23T01:35:24.475Z,97973.22
2018-05-23T01:37:53.483Z,97974.50
2018-05-23T01:40:21.723Z,97976.23
2018-05-23T01:42:51.479Z,97971.94
2018-05-23T01:45:19.719Z,97977.48
2018-05-23T01:47:47.975Z,97972.80
2018-05-23T01:50:16.221Z,97976.64
2018-05-23T01:52:44.470Z,97974.23
2018-05-23T01:55:13.471Z,97975.96
2018-05-23T01:57:41.719Z,97979.86
2018-05-23T02:00:10.729Z,97978.99
2018-05-23T02:02:39.744Z,97985.11
2018-05-23T02:05:07.986Z,97984.64
2018-05-23T02:07:36.999Z,97989.04
2018-05-23T02:10:05.239Z,97987.31
2018-05-23T02:12:34.248Z,97990.41
2018-05-23T02:15:03.260Z,97991.47
2018-05-23T02:17:31.515Z,97991.30
2018-05-23T02:20:00.524Z,97995.34
2018-05-23T02:22:28.771Z,97990.94
2018-05-23T02:24:57.024Z,97993.31
2018-05-23T02:27:25.268Z,97995.89
2018-05-23T02:29:53.519Z,97998.03
2018-05-23T02:32:22.530Z,97996.91
2018-05-23T02:34:50.788Z,97993.39
2018-05-23T02:37:19.800Z,97995.89
2018-05-23T02:39:48.048Z,97998.28
2018-05-23T02:42:17.056Z,97995.89
2018-05-23T02:44:46.070Z,97997.61
2018-05-23T02:47:14.388Z,97998.45
2018-05-23T02:49:43.333Z,98003.27
2018-05-23T02:52:11.576Z,98006.05
2018-05-23T02:54:40.595Z,98008.16
2018-05-23T02:57:08.851Z,98013.13
2018-05-23T02:59:37.870Z,98016.35
2018-05-23T03:02:06.105Z,98018.74
2018-05-23T03:04:34.358Z,98018.23
2018-05-23T03:07:02.596Z,98023.77
2018-05-23T03:09:30.846Z,98023.64
2018-05-23T03:11:59.857Z,98027.86
2018-05-23T03:14:28.101Z,98033.56
2018-05-23T03:16:56.339Z,98034.40
2018-05-23T03:19:24.587Z,98037.81
2018-05-23T03:21:52.840Z,98037.73
2018-05-23T03:24:21.863Z,98034.70
2018-05-23T03:26:50.116Z,98036.82
2018-05-23T03:29:19.123Z,98040.80
2018-05-23T03:31:47.375Z,98038.73
2018-05-23T03:34:16.387Z,98045.05
2018-05-23T03:36:44.639Z,98046.30
2018-05-23T03:39:13.648Z,98046.56
2018-05-23T03:41:41.899Z,98047.69
2018-05-23T03:44:10.160Z,98043.98
2018-05-23T03:46:38.400Z,98050.87
2018-05-23T03:49:06.643Z,98048.55
2018-05-23T03:51:35.656Z,98047.00
2018-05-23T03:54:03.892Z,98045.61
2018-05-23T03:56:32.142Z,98049.91
2018-05-23T03:59:00.395Z,98058.17
2018-05-23T04:01:46.506Z,98057.69
2018-05-23T04:04:32.645Z,98058.86
2018-05-23T04:10:14.090Z,98060.58
2018-05-23T04:12:42.338Z,98057.48
2018-05-23T04:15:11.345Z,98066.35
2018-05-23T04:17:39.596Z,98078.38
2018-05-23T04:20:08.600Z,98071.72
2018-05-23T04:22:36.853Z,98081.80
2018-05-23T04:25:05.095Z,98080.70
2018-05-23T04:27:33.347Z,98075.91
2018-05-23T04:30:01.592Z,98078.59
2018-05-23T04:32:30.608Z,98082.11
2018-05-23T04:34:58.847Z,98088.70
2018-05-23T04:37:27.867Z,98084.70
2018-05-23T04:39:56.127Z,98086.91
2018-05-23T04:42:25.127Z,98086.32
2018-05-23T04:44:53.384Z,98088.90
2018-05-23T04:47:22.411Z,98091.88
2018-05-23T04:49:50.655Z,98099.55
2018-05-23T04:52:19.660Z,98100.86
2018-05-23T04:54:48.677Z,98101.20
2018-05-23T04:57:16.914Z,98104.42
2018-05-23T04:59:45.927Z,98102.16
2018-05-23T05:02:14.170Z,98102.99
2018-05-23T05:04:42.419Z,98103.52
2018-05-23T05:07:10.665Z,98106.98
2018-05-23T05:09:38.919Z,98108.23
2018-05-23T05:12:07.955Z,98117.19
2018-05-23T05:14:36.210Z,98116.72
2018-05-23T05:17:04.452Z,98119.03
2018-05-23T05:19:32.705Z,98117.81
2018-05-23T05:22:00.949Z,98123.20
2018-05-23T05:24:29.194Z,98126.75
2018-05-23T05:26:57.442Z,98130.82
2018-05-23T05:29:25.695Z,98135.44
2018-05-23T05:31:53.980Z,98138.49
2018-05-23T05:34:22.191Z,98144.53
2018-05-23T05:36:51.206Z,98142.72
2018-05-23T05:39:19.466Z,98144.67
2018-05-23T05:41:48.465Z,98152.39
2018-05-23T05:44:16.712Z,98161.16
2018-05-23T05:46:44.956Z,98162.54
2018-05-23T05:49:13.197Z,98166.23
2018-05-23T05:51:41.447Z,98168.10
2018-05-23T05:54:10.451Z,98166.80
2018-05-23T05:56:39.464Z,98175.58
2018-05-23T05:59:07.708Z,98177.13
2018-05-23T06:01:36.723Z,98180.92
2018-05-23T06:04:04.971Z,98183.68
2018-05-23T06:06:33.210Z,98190.05
2018-05-23T06:09:01.445Z,98187.58
2018-05-23T06:11:29.695Z,98186.70
2018-05-23T06:13:58.703Z,98196.16
2018-05-23T06:16:27.716Z,98202.17
2018-05-23T06:18:55.965Z,98201.26
2018-05-23T06:21:24.970Z,98202.64
2018-05-23T06:23:53.212Z,98199.22
2018-05-23T06:26:22.965Z,98201.13
2018-05-23T06:28:51.210Z,98202.16
2018-05-23T06:31:19.451Z,98199.15
2018-05-23T06:33:47.692Z,98200.08
2018-05-23T06:36:15.944Z,98200.14
2018-05-23T06:38:44.961Z,98197.06
2018-05-23T06:41:13.214Z,98204.05
2018-05-23T06:43:42.326Z,98205.20
2018-05-23T06:46:10.478Z,98203.08
2018-05-23T06:48:38.728Z,98207.28
2018-05-23T06:51:06.972Z,98206.34
2018-05-23T06:53:35.221Z,98209.98
2018-05-23T06:56:04.223Z,98215.30
2018-05-23T06:58:32.475Z,98215.74
2018-05-23T07:01:00.715Z,98220.13
2018-05-23T07:03:28.963Z,98224.45
2018-05-23T07:05:57.309Z,98223.94
2018-05-23T07:08:26.231Z,98229.11
2018-05-23T07:10:54.480Z,98232.92
2018-05-23T07:13:23.500Z,98241.00
2018-05-23T07:15:51.748Z,98247.28
2018-05-23T07:18:20.771Z,98245.80
2018-05-23T07:20:49.012Z,98242.23
2018-05-23T07:23:18.038Z,98239.49
2018-05-23T07:25:46.307Z,98242.09
2018-05-23T07:28:14.547Z,98243.31
2018-05-23T07:30:42.791Z,98236.68
2018-05-23T07:33:11.047Z,98237.22
2018-05-23T07:35:39.285Z,98234.23
2018-05-23T07:38:08.307Z,98233.74
2018-05-23T07:40:36.544Z,98239.08
2018-05-23T07:43:05.555Z,98238.09
2018-05-23T07:45:34.571Z,98241.19
2018-05-23T07:48:02.804Z,98249.23
2018-05-23T07:50:31.047Z,98249.28
2018-05-23T07:52:59.282Z,98245.68
2018-05-23T07:55:27.584Z,98243.16
2018-05-23T07:57:55.826Z,98243.28
2018-05-23T08:00:24.084Z,98238.30
2018-05-23T08:02:52.315Z,98244.36
2018-05-23T08:05:20.563Z,98241.64
2018-05-23T08:07:48.808Z,98242.51
2018-05-23T08:10:17.062Z,98244.20
2018-05-23T08:12:45.331Z,98243.77
2018-05-23T08:15:13.559Z,98245.98
2018-05-23T08:17:41.808Z,98240.00
2018-05-23T08:20:10.052Z,98247.49
2018-05-23T08:22:38.297Z,98257.55
2018-05-23T08:25:06.548Z,98254.16
2018-05-23T08:27:35.552Z,98254.45
2018-05-23T08:30:03.800Z,98261.62
2018-05-23T08:32:32.048Z,98261.88
2018-05-23T08:35:00.292Z,98262.38
2018-05-23T08:37:28.546Z,98262.36
2018-05-23T08:39:56.788Z,98261.02
2018-05-23T08:42:25.039Z,98267.72
2018-05-23T08:44:53.281Z,98270.11
2018-05-23T08:47:21.535Z,98272.64
2018-05-23T08:49:50.551Z,98275.48
2018-05-23T08:52:18.813Z,98271.35
2018-05-23T08:54:47.816Z,98277.45
2018-05-23T08:57:16.069Z,98280.70
2018-05-23T08:59:45.092Z,98289.25
2018-05-23T09:02:13.343Z,98282.39
2018-05-23T09:04:42.406Z,98284.25
2018-05-23T09:07:10.626Z,98279.61
2018-05-23T09:09:38.870Z,98282.34
2018-05-23T09:12:07.135Z,98281.22
2018-05-23T09:14:35.381Z,98281.66
2018-05-23T09:17:03.642Z,98291.06
2018-05-23T09:19:31.888Z,98286.13
2018-05-23T09:22:00.918Z,98282.53
2018-05-23T09:24:29.177Z,98285.53
2018-05-23T09:26:57.432Z,98281.61
2018-05-23T09:29:26.464Z,98289.94
2018-05-23T09:31:54.716Z,98287.13
2018-05-23T09:34:22.968Z,98292.16
2018-05-23T09:36:51.985Z,98293.34
2018-05-23T09:39:20.233Z,98294.00
2018-05-23T09:41:48.497Z,98294.03
2018-05-23T09:44:16.765Z,98298.09
2018-05-23T09:46:44.999Z,98296.50
2018-05-23T09:49:13.254Z,98291.16
2018-05-23T09:51:42.277Z,98293.27
2018-05-23T09:54:10.539Z,98286.44
2018-05-23T09:56:38.780Z,98288.62
2018-05-23T09:59:07.794Z,98289.91
2018-05-23T10:01:36.118Z,98298.22
2018-05-23T10:04:04.296Z,98303.11
2018-05-23T10:06:32.540Z,98298.31
2018-05-23T10:09:00.801Z,98291.92
2018-05-23T10:11:29.049Z,98291.59
2018-05-23T10:13:57.308Z,98297.18
2018-05-23T10:16:25.547Z,98293.88
2018-05-23T10:18:53.803Z,98292.23
2018-05-23T10:21:22.049Z,98287.70
2018-05-23T10:23:50.303Z,98284.50
2018-05-23T10:26:18.619Z,98293.23
2018-05-23T10:28:46.864Z,98301.37
2018-05-23T10:31:15.059Z,98291.66
2018-05-23T10:33:44.084Z,98294.02
2018-05-23T10:36:12.333Z,98287.56
2018-05-23T10:38:41.350Z,98292.81
2018-05-23T10:41:09.603Z,98294.10
2018-05-23T10:43:38.621Z,98296.67
2018-05-23T10:46:06.905Z,98300.74
2018-05-23T10:48:35.885Z,98294.36
2018-05-23T10:51:04.146Z,98295.15
2018-05-23T10:53:33.162Z,98294.52
2018-05-23T10:56:01.449Z,98290.69
2018-05-23T10:58:30.427Z,98284.45
2018-05-23T11:00:58.684Z,98289.00
2018-05-23T11:03:27.687Z,98287.20
2018-05-23T11:05:56.007Z,98283.82
2018-05-23T11:08:24.947Z,98287.31
2018-05-23T11:10:53.205Z,98284.86
2018-05-23T11:13:22.224Z,98282.76
2018-05-23T11:15:50.488Z,98277.70
2018-05-23T11:18:19.491Z,98273.11
2018-05-23T11:20:47.743Z,98268.03
2018-05-23T11:23:16.772Z,98270.42
2018-05-23T11:25:45.028Z,98264.15
2018-05-23T11:28:14.041Z,98257.01
2018-05-23T11:30:42.293Z,98259.41
2018-05-23T11:33:11.303Z,98260.25
2018-05-23T11:35:39.563Z,98258.72
2018-05-23T11:38:08.572Z,98255.45
2018-05-23T11:40:36.821Z,98262.47
2018-05-23T11:43:05.853Z,98269.20
2018-05-23T11:45:34.092Z,98263.45
2018-05-23T11:48:03.107Z,98262.58
2018-05-23T11:50:31.354Z,98268.34
2018-05-23T11:53:00.373Z,98261.58
2018-05-23T11:55:28.621Z,98256.22
2018-05-23T11:57:57.641Z,98251.98
2018-05-23T12:00:25.888Z,98256.67
2018-05-23T12:02:54.906Z,98257.77
2018-05-23T12:05:23.157Z,98254.56
2018-05-23T12:07:51.403Z,98259.79
2018-05-23T12:10:19.675Z,98247.67
2018-05-23T12:12:47.912Z,98250.80
2018-05-23T12:15:16.158Z,98254.84
2018-05-23T12:17:45.182Z,98254.30
2018-05-23T12:20:13.424Z,98260.86
2018-05-23T12:22:41.681Z,98263.61
2018-05-23T12:25:09.940Z,98272.19
2018-05-23T12:27:38.187Z,98278.18
2018-05-23T12:30:06.435Z,98277.03
2018-05-23T12:32:35.466Z,98283.36
2018-05-23T12:35:03.700Z,98295.89
2018-05-23T12:37:32.721Z,98296.23
2018-05-23T12:40:00.965Z,98305.14
2018-05-23T12:42:29.232Z,98306.06
2018-05-23T12:44:57.477Z,98306.12
2018-05-23T12:47:25.724Z,98307.41
2018-05-23T12:49:53.968Z,98300.41
2018-05-23T12:52:22.996Z,98294.40
2018-05-23T12:54:51.244Z,98282.59
2018-05-23T12:57:20.260Z,98280.44
2018-05-23T12:59:48.515Z,98287.13
2018-05-23T13:02:17.529Z,98288.72
2018-05-23T13:04:45.780Z,98285.66
2018-05-23T13:07:14.785Z,98288.03
2018-05-23T13:09:43.039Z,98285.20
2018-05-23T13:12:11.286Z,98285.46
2018-05-23T13:14:39.545Z,98277.25
2018-05-23T13:17:07.779Z,98278.29
2018-05-23T13:19:36.812Z,98273.08
2018-05-23T13:22:05.063Z,98277.96
2018-05-23T13:24:33.312Z,98280.13
2018-05-23T13:27:02.323Z,98284.88
2018-05-23T13:29:30.571Z,98279.98
2018-05-23T13:31:58.812Z,98286.02
2018-05-23T13:34:27.064Z,98287.94
2018-05-23T13:36:55.305Z,98280.37
2018-05-23T13:39:24.325Z,98271.17
2018-05-23T13:41:52.571Z,98270.99
2018-05-23T13:44:21.165Z,98267.88
2018-05-23T13:46:50.188Z,98261.20
2018-05-23T13:49:18.454Z,98256.02
2018-05-23T13:51:46.696Z,98256.37
2018-05-23T13:54:14.935Z,98255.58
2018-05-23T13:56:43.196Z,98259.07
2018-05-23T13:59:11.427Z,98269.02
2018-05-23T14:01:40.472Z,98263.68
2018-05-23T14:04:08.684Z,98269.75
2018-05-23T14:06:36.962Z,98264.20
2018-05-23T14:09:05.997Z,98259.27
2018-05-23T14:11:34.255Z,98263.27
2018-05-23T14:14:03.275Z,98258.89
2018-05-23T14:16:31.527Z,98266.04
2018-05-23T14:18:59.926Z,98261.42
2018-05-23T14:21:28.209Z,98257.70
2018-05-23T14:23:56.452Z,98258.95
2018-05-23T14:26:25.473Z,98263.98
2018-05-23T14:28:53.719Z,98261.66
2018-05-23T14:31:22.730Z,98263.94
2018-05-23T14:33:50.975Z,98268.81
2018-05-23T14:36:19.991Z,98271.53
2018-05-23T14:38:48.244Z,98268.02
2018-05-23T14:41:17.391Z,98268.83
2018-05-23T14:43:45.724Z,98271.45
2018-05-23T14:46:13.886Z,98278.39
2018-05-23T14:48:42.911Z,98279.31
2018-05-23T14:51:11.155Z,98288.64
2018-05-23T14:53:40.173Z,98282.70
2018-05-23T14:56:08.419Z,98281.62
2018-05-23T14:58:36.746Z,98284.48
2018-05-23T15:01:04.916Z,98280.73
2018-05-23T15:03:33.171Z,98279.81
2018-05-23T15:06:02.183Z,98285.83
2018-05-23T15:08:30.508Z,98293.92
2018-05-23T15:10:58.691Z,98286.95
2018-05-23T15:13:26.943Z,98301.53
2018-05-23T15:15:55.192Z,98304.91
2018-05-23T15:18:23.442Z,98306.70
2018-05-23T15:20:52.448Z,98312.30
2018-05-23T15:23:20.706Z,98310.57
2018-05-23T15:25:49.722Z,98316.98
2018-05-23T15:28:17.968Z,98323.35
2018-05-23T15:30:46.976Z,98329.38
2018-05-23T15:33:15.221Z,98329.96
2018-05-23T15:35:43.460Z,98345.45
2018-05-23T15:38:11.715Z,98341.70
2018-05-23T15:40:39.955Z,98344.28
2018-05-23T15:43:08.971Z,98350.59
2018-05-23T15:45:37.213Z,98359.06
2018-05-23T15:48:05.460Z,98346.14
2018-05-23T15:50:33.704Z,98346.17
2018-05-23T15:53:01.955Z,98346.48
2018-05-23T15:55:30.962Z,98344.78
2018-05-23T15:57:59.204Z,98344.39
2018-05-23T16:00:27.454Z,98346.87
2018-05-23T16:02:55.704Z,98345.91
2018-05-23T16:05:23.948Z,98352.48
2018-05-23T16:07:52.959Z,98352.52
2018-05-23T16:10:21.202Z,98354.37
2018-05-23T16:12:49.446Z,98342.02
2018-05-23T16:15:17.703Z,98342.83
2018-05-23T16:17:45.938Z,98339.16
2018-05-23T16:20:14.963Z,98345.36
2018-05-23T16:22:43.203Z,98340.75
2018-05-23T16:25:11.450Z,98337.80
2018-05-23T16:27:39.693Z,98341.59
2018-05-23T16:30:07.945Z,98348.57
2018-05-23T16:32:36.959Z,98355.73
2018-05-23T16:35:05.231Z,98355.02
2018-05-23T16:37:33.475Z,98353.81
2018-05-23T16:40:02.496Z,98357.21
2018-05-23T16:42:30.744Z,98356.31
2018-05-23T16:44:59.761Z,98359.02
2018-05-23T16:47:28.016Z,98359.23
2018-05-23T16:49:57.031Z,98349.13
2018-05-23T16:52:25.281Z,98351.75
2018-05-23T16:54:54.300Z,98342.34
2018-05-23T16:57:22.553Z,98340.91
2018-05-23T16:59:51.577Z,98349.58
2018-05-23T17:02:19.823Z,98349.00
2018-05-23T17:04:48.833Z,98347.06
2018-05-23T17:07:17.084Z,98346.33
2018-05-23T17:09:46.109Z,98348.20
2018-05-23T17:12:14.352Z,98355.48
2018-05-23T17:14:42.592Z,98347.05
2018-05-23T17:17:10.848Z,98358.02
2018-05-23T17:19:39.091Z,98357.45
2018-05-23T17:22:08.335Z,98350.58
2018-05-23T17:24:36.584Z,98354.98
2018-05-23T17:27:04.851Z,98344.51
2018-05-23T17:29:33.863Z,98355.30
2018-05-23T17:32:02.117Z,98354.87
2018-05-23T17:34:31.135Z,98356.80
2018-05-23T17:36:59.380Z,98367.69
2018-05-23T17:39:28.383Z,98369.16
2018-05-23T17:41:57.400Z,98368.95
2018-05-23T17:44:25.674Z,98374.67
2018-05-23T17:46:54.655Z,98374.01
2018-05-23T17:49:22.903Z,98371.92
2018-05-23T17:51:51.919Z,98374.65
2018-05-23T17:54:20.172Z,98376.06
2018-05-23T17:56:49.205Z,98378.27
2018-05-23T17:59:17.442Z,98374.75
2018-05-23T18:01:46.462Z,98369.11
2018-05-23T18:04:14.698Z,98368.40
2018-05-23T18:06:42.949Z,98365.87
2018-05-23T18:09:11.214Z,98362.02
2018-05-23T18:11:39.451Z,98368.01
2018-05-23T18:14:08.461Z,98366.03
2018-05-23T18:16:36.740Z,98361.41
2018-05-23T18:19:05.724Z,98357.55
2018-05-23T18:21:34.026Z,98360.48
2018-05-23T18:24:02.273Z,98356.89
2018-05-23T18:26:31.287Z,98352.27
2018-05-23T18:28:59.532Z,98350.50
2018-05-23T18:31:28.544Z,98345.73
2018-05-23T18:33:56.803Z,98356.32
2018-05-23T18:36:25.812Z,98357.84
2018-05-23T18:38:54.071Z,98362.17
2018-05-23T18:41:23.088Z,98364.52
2018-05-23T18:43:51.341Z,98364.44
2018-05-23T18:46:20.344Z,98354.36
2018-05-23T18:48:48.595Z,98358.98
2018-05-23T18:51:17.607Z,98355.64
2018-05-23T18:53:46.632Z,98353.66
2018-05-23T18:56:14.871Z,98357.63
2018-05-23T18:58:43.894Z,98363.63
2018-05-23T19:01:12.137Z,98365.25
2018-05-23T19:03:41.158Z,98363.24
2018-05-23T19:06:09.397Z,98362.68
2018-05-23T19:08:38.415Z,98359.63
2018-05-23T19:11:06.655Z,98359.78
2018-05-23T19:13:34.905Z,98364.20
2018-05-23T19:16:03.151Z,98368.44
2018-05-23T19:18:31.407Z,98369.03
2018-05-23T19:20:59.673Z,98381.34
2018-05-23T19:23:28.720Z,98377.78
2018-05-23T19:25:56.964Z,98380.20
2018-05-23T19:28:25.260Z,98388.80
2018-05-23T19:30:53.536Z,98388.47
2018-05-23T19:33:21.782Z,98390.30
2018-05-23T19:35:50.796Z,98385.20
2018-05-23T19:38:19.039Z,98390.35
2018-05-23T19:40:48.087Z,98391.61
2018-05-23T19:43:16.328Z,98390.87
2018-05-23T19:45:44.575Z,98393.92
2018-05-23T19:48:13.594Z,98401.23
2018-05-23T19:50:41.843Z,98399.58
2018-05-23T19:53:10.848Z,98403.91
2018-05-23T19:55:39.892Z,98408.25
2018-05-23T19:58:08.131Z,98407.91
2018-05-23T20:00:36.394Z,98410.98
2018-05-23T20:03:05.400Z,98409.34
2018-05-23T20:05:33.647Z,98415.66
2018-05-23T20:08:02.685Z,98421.17
2018-05-23T20:10:31.680Z,98416.43
2018-05-23T20:12:59.934Z,98419.41
2018-05-23T20:15:28.179Z,98415.98
2018-05-23T20:17:56.423Z,98420.27
2018-05-23T20:20:24.685Z,98412.27
2018-05-23T20:22:52.931Z,98407.17
2018-05-23T20:25:21.945Z,98401.15
2018-05-23T20:27:50.194Z,98409.31
2018-05-23T20:30:19.214Z,98406.73
2018-05-23T20:32:47.467Z,98403.97
2018-05-23T20:35:16.477Z,98401.84
2018-05-23T20:37:44.745Z,98400.11
2018-05-23T20:40:12.997Z,98398.05
2018-05-23T20:42:42.008Z,98394.34
2018-05-23T20:45:10.265Z,98393.13
2018-05-23T20:47:39.350Z,98394.48
2018-05-23T20:50:07.528Z,98396.17
2018-05-23T20:52:35.777Z,98396.62
2018-05-23T20:55:04.013Z,98389.73
2018-05-23T20:57:32.269Z,98392.64
2018-05-23T21:00:01.284Z,98391.03
2018-05-23T21:02:29.536Z,98391.48
2018-05-23T21:04:58.547Z,98385.87
2018-05-23T21:07:26.804Z,98394.03
2018-05-23T21:09:55.818Z,98396.59
2018-05-23T21:12:24.070Z,98400.83
2018-05-23T21:14:53.087Z,98393.17
2018-05-23T21:17:21.348Z,98399.92
2018-05-23T21:19:50.349Z,98398.67
2018-05-23T21:22:18.605Z,98404.64
2018-05-23T21:24:47.624Z,98404.20
2018-05-23T21:27:15.873Z,98402.48
2018-05-23T21:29:44.891Z,98393.05
2018-05-23T21:32:13.135Z,98395.56
2018-05-23T21:34:42.151Z,98391.70
2018-05-23T21:37:10.403Z,98381.98
2018-05-23T21:39:39.411Z,98381.04
2018-05-23T21:42:09.184Z,98385.66
2018-05-23T21:44:37.436Z,98385.78
2018-05-23T21:47:05.678Z,98382.41
2018-05-23T21:49:34.692Z,98378.67
2018-05-23T21:52:02.933Z,98382.17
2018-05-23T21:56:59.488Z,98384.94
2018-05-23T21:59:28.508Z,98372.36
2018-05-23T22:01:56.751Z,98374.98
2018-05-23T22:04:25.000Z,98369.84
2018-05-23T22:06:53.244Z,98375.41
2018-05-23T22:09:21.499Z,98378.86
2018-05-23T22:11:49.748Z,98381.84
2018-05-23T22:14:18.000Z,98381.84
2018-05-23T22:16:46.243Z,98378.02
2018-05-23T22:19:14.498Z,98381.55
2018-05-23T22:21:42.748Z,98385.94
2018-05-23T22:24:11.019Z,98382.27
2018-05-23T22:26:40.771Z,98379.91
2018-05-23T22:29:09.029Z,98385.98
2018-05-23T22:31:38.044Z,98386.02
2018-05-23T22:34:06.300Z,98385.55
2018-05-23T22:36:35.307Z,98379.63
2018-05-23T22:39:03.571Z,98376.67
2018-05-23T22:41:32.675Z,98377.97
2018-05-23T22:44:00.930Z,98377.64
2018-05-23T22:46:29.943Z,98370.91
2018-05-23T22:48:58.203Z,98377.91
2018-05-23T22:51:27.207Z,98376.40
2018-05-23T22:53:55.474Z,98373.19
2018-05-23T22:56:24.479Z,98377.06
2018-05-23T22:58:52.738Z,98377.05
2018-05-23T23:01:21.756Z,98380.02
2018-05-23T23:03:49.999Z,98375.34
2018-05-23T23:06:19.015Z,98387.75
2018-05-23T23:08:47.269Z,98387.23
2018-05-23T23:11:16.283Z,98376.14
2018-05-23T23:13:44.522Z,98379.20
2018-05-23T23:16:12.775Z,98376.20
2018-05-23T23:18:41.025Z,98380.87
2018-05-23T23:21:09.273Z,98379.16
2018-05-23T23:23:38.283Z,98389.44
2018-05-23T23:26:06.533Z,98385.16
2018-05-23T23:28:35.539Z,98386.92
2018-05-23T23:31:03.791Z,98386.98
2018-05-23T23:33:32.040Z,98384.39
2018-05-23T23:36:00.291Z,98385.28
2018-05-23T23:38:28.536Z,98385.75
2018-05-23T23:40:57.556Z,98381.12
2018-05-23T23:43:25.799Z,98375.32
2018-05-23T23:45:54.820Z,98377.11
2018-05-23T23:48:23.074Z,98375.05
2018-05-23T23:50:52.097Z,98379.34
2018-05-23T23:53:20.347Z,98372.98
2018-05-23T23:55:49.364Z,98377.17
2018-05-23T23:58:17.612Z,98369.11
